Time;durP1;ratioP1;P1;durP2;ratioP2;P2;SDS_P1;SDS_P2;PMS_P1;PMS_P2;Temp;Humidity;BMP_temperature;BMP_pressure;BME280_temperature;BME280_humidity;BME280_pressure;Samples;Min_cycle;Max_cycle;Signal;HPM_P1;HPM_P2
2022/12/22 03:27:24;;;;;;;63.08;33.83;;;2.30;99.90;;;;;;5034778;28;20056;-71
2022/12/22 03:29:52;;;;;;;58.60;33.17;;;2.30;99.90;;;;;;5035011;28;20045;-72
2022/12/22 03:32:19;;;;;;;60.78;32.42;;;2.20;99.90;;;;;;5034490;28;20068;-71
2022/12/22 03:34:46;;;;;;;66.32;31.77;;;2.10;99.90;;;;;;5034864;28;20041;-70
2022/12/22 03:37:14;;;;;;;58.08;33.17;;;1.90;99.90;;;;;;5049657;28;20049;-71
2022/12/22 03:39:44;;;;;;;66.65;35.47;;;1.90;99.90;;;;;;5035188;28;20459;-71
2022/12/22 03:47:43;;;;;;;64.70;33.35;;;2.00;99.90;;;;;;5034312;28;20060;-71
2022/12/22 03:50:11;;;;;;;59.80;33.60;;;2.10;99.90;;;;;;5034339;28;20045;-70
2022/12/22 03:52:38;;;;;;;58.45;31.60;;;2.10;99.90;;;;;;5033217;28;20046;-70
2022/12/22 03:55:06;;;;;;;55.80;30.15;;;2.20;99.90;;;;;;5034712;28;20045;-70
2022/12/22 03:57:33;;;;;;;52.75;28.00;;;2.20;99.90;;;;;;5034261;28;20103;-71
2022/12/22 04:00:00;;;;;;;50.40;28.58;;;2.20;99.90;;;;;;5034538;28;20162;-71
2022/12/22 04:02:28;;;;;;;52.63;29.52;;;2.10;99.90;;;;;;5033878;28;20060;-71
2022/12/22 04:04:55;;;;;;;53.08;29.48;;;2.00;99.90;;;;;;5034464;28;20412;-69
2022/12/22 04:07:23;;;;;;;49.63;29.65;;;2.00;99.90;;;;;;5033906;28;20040;-70
2022/12/22 04:12:54;;;;;;;51.78;28.33;;;2.00;99.90;;;;;;5033707;28;20065;-70
2022/12/22 04:15:27;;;;;;;47.22;27.15;;;1.80;99.90;;;;;;5033552;28;20122;-70
2022/12/22 04:17:59;;;;;;;44.67;26.92;;;1.80;99.90;;;;;;5033366;28;20072;-71
2022/12/22 04:20:27;;;;;;;45.15;27.65;;;1.90;99.90;;;;;;5016805;28;20091;-71
2022/12/22 04:22:55;;;;;;;51.78;28.20;;;1.80;99.90;;;;;;5016705;28;20327;-73
2022/12/22 04:25:24;;;;;;;57.25;27.50;;;1.90;99.90;;;;;;5016577;28;20049;-72
2022/12/22 04:27:52;;;;;;;45.80;27.98;;;1.90;99.90;;;;;;5032451;28;20424;-72
2022/12/22 04:30:19;;;;;;;52.80;29.23;;;2.00;99.90;;;;;;5033891;28;20136;-71
2022/12/22 04:32:47;;;;;;;49.22;28.27;;;2.10;99.90;;;;;;5033687;28;20045;-73
2022/12/22 04:35:14;;;;;;;51.00;27.80;;;2.00;99.90;;;;;;5033012;28;20044;-71
2022/12/22 04:37:42;;;;;;;44.53;27.58;;;2.00;99.90;;;;;;5032287;28;20111;-71
2022/12/22 04:40:12;;;;;;;47.33;29.02;;;2.00;99.90;;;;;;5033858;28;20070;-71
2022/12/22 04:42:39;;;;;;;47.97;28.35;;;1.90;99.90;;;;;;5032281;28;20119;-72
2022/12/22 04:45:10;;;;;;;48.03;28.88;;;1.80;99.90;;;;;;5033396;28;20400;-70
2022/12/22 04:47:38;;;;;;;46.70;28.02;;;1.70;99.90;;;;;;5033370;28;20053;-71
2022/12/22 04:50:06;;;;;;;51.00;29.30;;;1.80;99.90;;;;;;5033183;28;20052;-72
2022/12/22 04:52:36;;;;;;;55.92;30.20;;;1.60;99.90;;;;;;5033211;28;20072;-73
2022/12/22 04:55:05;;;;;;;55.38;29.88;;;1.70;99.90;;;;;;5016118;28;20923;-71
2022/12/22 04:57:32;;;;;;;54.38;29.35;;;1.60;99.90;;;;;;4999381;28;20041;-71
2022/12/22 05:00:07;;;;;;;50.25;29.08;;;1.70;99.90;;;;;;5016517;28;20061;-70
2022/12/22 05:02:35;;;;;;;53.05;28.85;;;1.70;99.90;;;;;;5031868;28;20041;-73
2022/12/22 05:05:03;;;;;;;51.72;29.67;;;1.70;99.90;;;;;;5033241;28;20416;-72
2022/12/22 05:07:31;;;;;;;54.22;30.02;;;1.70;99.90;;;;;;5032979;28;20442;-70
2022/12/22 05:09:58;;;;;;;60.40;31.83;;;1.70;99.90;;;;;;5033030;28;20452;-72
2022/12/22 05:15:12;;;;;;;52.63;30.17;;;1.50;99.90;;;;;;5032885;28;20033;-70
2022/12/22 05:17:39;;;;;;;49.47;28.95;;;1.50;99.90;;;;;;5032891;28;20049;-73
2022/12/22 05:20:07;;;;;;;53.65;29.95;;;1.60;99.90;;;;;;5032680;28;20091;-71
2022/12/22 05:22:35;;;;;;;46.97;27.90;;;1.70;99.90;;;;;;5031581;28;20080;-71
2022/12/22 05:25:02;;;;;;;47.70;27.88;;;1.70;99.90;;;;;;5033128;28;20135;-70
2022/12/22 05:27:30;;;;;;;50.03;28.83;;;1.70;99.90;;;;;;5032641;28;20373;-72
2022/12/22 05:29:57;;;;;;;50.17;27.65;;;1.80;99.90;;;;;;5031394;28;20049;-70
2022/12/22 05:32:24;;;;;;;42.67;26.17;;;1.70;99.90;;;;;;5032890;28;20046;-71
2022/12/22 05:34:52;;;;;;;51.22;28.67;;;1.80;99.90;;;;;;5032951;28;20400;-69
2022/12/22 05:37:22;;;;;;;47.00;27.50;;;1.90;99.90;;;;;;5032463;28;20104;-70
2022/12/22 05:39:51;;;;;;;48.65;29.35;;;1.80;99.90;;;;;;5032872;28;20041;-70
2022/12/22 05:42:34;;;;;;;44.45;26.10;;;1.80;99.90;;;;;;5032390;28;20053;-71
2022/12/22 05:45:19;;;;;;;89.05;46.20;;;1.70;99.90;;;;;;5033011;28;20400;-72
2022/12/22 05:47:49;;;;;;;151.30;73.57;;;1.80;99.90;;;;;;5032051;28;20041;-72
2022/12/22 05:50:18;;;;;;;;;;;1.80;99.90;;;;;;5033069;28;20038;-69
2022/12/22 05:52:46;;;;;;;43.63;26.85;;;1.90;99.90;;;;;;5014941;28;19991;-70
2022/12/22 05:55:15;;;;;;;40.78;25.50;;;1.90;99.90;;;;;;5032537;28;20436;-70
2022/12/22 05:57:42;;;;;;;43.15;25.25;;;1.80;99.90;;;;;;5032191;28;20045;-70
2022/12/22 06:00:13;;;;;;;40.30;24.73;;;1.60;99.90;;;;;;5032126;28;20063;-70
2022/12/22 06:02:41;;;;;;;39.10;24.17;;;1.70;99.90;;;;;;5029896;28;20049;-71
2022/12/22 06:05:10;;;;;;;44.22;23.88;;;1.80;99.90;;;;;;5031494;28;20053;-71
2022/12/22 06:07:38;;;;;;;42.92;25.05;;;1.80;99.90;;;;;;5031252;28;20390;-71
2022/12/22 06:10:07;;;;;;;41.05;24.40;;;1.90;99.90;;;;;;5032432;28;20060;-71
2022/12/22 06:12:40;;;;;;;45.10;26.05;;;1.90;99.90;;;;;;5031991;28;20060;-70
2022/12/22 06:15:13;;;;;;;37.30;23.92;;;1.90;99.90;;;;;;5015366;28;20064;-71
2022/12/22 06:17:41;;;;;;;43.53;25.13;;;1.90;99.90;;;;;;5032336;28;20056;-71
2022/12/22 06:20:15;;;;;;;38.05;24.08;;;1.90;99.90;;;;;;5031919;28;20064;-71
2022/12/22 06:22:42;;;;;;;45.72;24.65;;;1.80;99.90;;;;;;5031615;28;20060;-70
2022/12/22 06:25:10;;;;;;;43.88;25.48;;;1.70;99.90;;;;;;5032269;28;20108;-71
2022/12/22 06:27:45;;;;;;;43.70;25.05;;;1.70;99.90;;;;;;5031367;28;20042;-70
2022/12/22 06:30:14;;;;;;;48.60;26.55;;;1.70;99.90;;;;;;5032251;28;20369;-72
2022/12/22 06:32:42;;;;;;;49.40;27.55;;;1.80;99.90;;;;;;5030804;28;20440;-70
2022/12/22 06:35:09;;;;;;;44.42;28.95;;;1.80;99.90;;;;;;5031864;28;20033;-73
2022/12/22 06:37:37;;;;;;;50.67;28.88;;;1.90;99.90;;;;;;5030135;28;20053;-71
2022/12/22 06:40:05;;;;;;;50.85;28.15;;;1.70;99.90;;;;;;5031844;28;20037;-71
2022/12/22 06:45:36;;;;;;;52.53;30.40;;;1.70;99.90;;;;;;5033850;28;20052;-70
2022/12/22 06:48:04;;;;;;;75.65;40.25;;;1.60;99.90;;;;;;5032996;28;20144;-71
2022/12/22 06:50:32;;;;;;;51.70;30.25;;;1.70;99.90;;;;;;5007421;28;20388;-72
2022/12/22 06:52:59;;;;;;;55.63;31.73;;;1.60;99.90;;;;;;4991401;28;20514;-72
2022/12/22 06:55:35;;;;;;;60.67;34.53;;;1.50;99.90;;;;;;5034075;28;20096;-70
2022/12/22 06:58:21;;;;;;;64.68;31.00;;;1.60;99.90;;;;;;5003640;28;20473;-73
2022/12/22 07:01:03;;;;;;;106.07;57.03;;;1.80;99.90;;;;;;5027696;28;20041;-70
2022/12/22 07:03:47;;;;;;;82.15;45.95;;;1.90;99.90;;;;;;5016998;28;20051;-71
2022/12/22 07:06:17;;;;;;;72.85;41.08;;;1.90;99.90;;;;;;5023993;28;20064;-71
2022/12/22 07:08:50;;;;;;;126.70;63.22;;;2.10;99.90;;;;;;5022347;28;20183;-72
2022/12/22 07:11:19;;;;;;;59.17;33.30;;;2.40;99.90;;;;;;5044839;28;20091;-71
2022/12/22 07:13:47;;;;;;;52.83;31.50;;;2.40;99.90;;;;;;5026591;28;20057;-71
2022/12/22 07:16:14;;;;;;;48.13;30.00;;;2.30;99.90;;;;;;5031916;28;20057;-70
2022/12/22 07:18:42;;;;;;;52.63;31.27;;;2.30;99.90;;;;;;5021306;28;20076;-72
2022/12/22 07:21:13;;;;;;;54.92;30.92;;;2.30;99.90;;;;;;5055075;28;20049;-73
2022/12/22 07:23:43;;;;;;;56.95;33.28;;;2.30;99.90;;;;;;5017914;28;20060;-71
2022/12/22 07:26:11;;;;;;;63.80;32.13;;;2.30;99.90;;;;;;5016344;28;20408;-71
2022/12/22 07:28:40;;;;;;;58.80;31.93;;;2.30;99.90;;;;;;5001673;28;20053;-72
2022/12/22 07:31:10;;;;;;;61.83;33.72;;;2.20;99.90;;;;;;5017760;28;20286;-73
2022/12/22 07:33:38;;;;;;;63.13;33.78;;;2.00;99.90;;;;;;5017847;28;20057;-72
2022/12/22 07:36:14;;;;;;;56.20;31.85;;;2.10;99.90;;;;;;5017067;28;20041;-73
2022/12/22 07:38:48;;;;;;;62.85;33.53;;;2.20;99.90;;;;;;5017841;28;20076;-73
2022/12/22 07:44:13;;;;;;;72.82;39.03;;;2.40;99.90;;;;;;5034946;28;20037;-73
2022/12/22 07:46:43;;;;;;;63.47;36.33;;;2.50;99.90;;;;;;5032951;28;20037;-73
2022/12/22 07:52:00;;;;;;;75.43;40.08;;;2.50;99.90;;;;;;5034258;28;20041;-74
2022/12/22 07:54:28;;;;;;;71.22;39.25;;;2.50;99.90;;;;;;5017026;28;20481;-73
2022/12/22 07:56:55;;;;;;;62.58;38.50;;;2.40;99.90;;;;;;5016965;28;20096;-74
2022/12/22 07:59:23;;;;;;;69.50;34.45;;;2.40;99.90;;;;;;5013740;28;20467;-73
2022/12/22 08:01:53;;;;;;;;;;;2.20;99.90;;;;;;4982785;28;20073;-72
2022/12/22 08:04:29;;;;;;;63.53;33.33;;;2.10;99.90;;;;;;5005804;28;20304;-73
2022/12/22 08:07:05;;;;;;;62.42;34.67;;;2.10;99.90;;;;;;5024431;28;20043;-72
2022/12/22 08:09:50;;;;;;;61.83;33.58;;;2.00;99.90;;;;;;5006055;28;20041;-73
2022/12/22 08:12:18;;;;;;;58.13;33.58;;;2.00;99.90;;;;;;5021276;28;20390;-73
2022/12/22 08:14:53;;;;;;;62.13;33.72;;;2.00;99.90;;;;;;5006497;28;20053;-72
2022/12/22 08:17:31;;;;;;;54.10;30.60;;;2.10;99.90;;;;;;5019469;28;20049;-71
2022/12/22 08:20:07;;;;;;;56.28;31.73;;;1.90;99.90;;;;;;5003807;28;20041;-72
2022/12/22 08:22:41;;;;;;;55.92;31.65;;;2.00;99.90;;;;;;5021395;28;20053;-72
2022/12/22 08:25:10;;;;;;;60.15;32.00;;;2.00;99.90;;;;;;5019837;28;20037;-72
2022/12/22 08:27:50;;;;;;;66.78;33.55;;;2.10;99.90;;;;;;5021955;28;20045;-72
2022/12/22 08:30:26;;;;;;;71.78;33.22;;;2.10;99.90;;;;;;5023943;28;20052;-72
2022/12/22 08:33:00;;;;;;;54.35;30.55;;;2.20;99.90;;;;;;5021046;28;20136;-72
2022/12/22 08:35:32;;;;;;;59.67;32.67;;;2.10;99.90;;;;;;5003487;28;20429;-73
2022/12/22 08:38:07;;;;;;;55.58;30.70;;;2.00;99.90;;;;;;5004534;28;20041;-71
2022/12/22 08:40:46;;;;;;;55.13;31.92;;;2.10;99.90;;;;;;5003607;28;20127;-72
2022/12/22 08:43:23;;;;;;;56.08;30.88;;;2.20;99.90;;;;;;5012177;28;20481;-71
2022/12/22 08:45:51;;;;;;;54.28;29.83;;;2.20;99.90;;;;;;5016994;28;20615;-73
2022/12/22 08:48:19;;;;;;;54.78;29.05;;;2.10;99.90;;;;;;5033311;28;20080;-72
2022/12/22 08:50:46;;;;;;;63.80;31.63;;;2.10;99.90;;;;;;5032498;28;20432;-72
2022/12/22 08:53:14;;;;;;;53.20;28.88;;;2.20;99.90;;;;;;5018080;28;20406;-72
2022/12/22 08:56:04;;;;;;;59.38;31.20;;;2.30;99.90;;;;;;4998972;28;20038;-72
2022/12/22 08:58:32;;;;;;;58.58;30.98;;;2.30;99.90;;;;;;5013955;28;20506;-71
2022/12/22 09:01:07;;;;;;;57.88;30.17;;;2.40;99.90;;;;;;5009373;28;20049;-69
2022/12/22 09:03:42;;;;;;;54.73;28.77;;;2.50;99.90;;;;;;5000541;28;20141;-71
2022/12/22 09:06:09;;;;;;;54.10;29.45;;;2.50;99.90;;;;;;5012634;28;20489;-70
2022/12/22 09:08:37;;;;;;;54.53;30.42;;;2.50;99.90;;;;;;5013531;28;20413;-73
2022/12/22 09:11:07;;;;;;;60.38;32.50;;;2.50;99.90;;;;;;5013492;28;20045;-71
2022/12/22 09:13:41;;;;;;;61.85;33.03;;;2.50;99.90;;;;;;5011736;28;20045;-71
2022/12/22 09:16:09;;;;;;;61.40;31.08;;;2.60;99.90;;;;;;4996431;28;20061;-73
2022/12/22 09:18:40;;;;;;;60.67;33.05;;;2.90;99.90;;;;;;5013090;28;20046;-73
2022/12/22 09:21:07;;;;;;;57.63;31.60;;;3.00;99.90;;;;;;5012623;28;20072;-71
2022/12/22 09:23:34;;;;;;;59.53;33.15;;;3.10;99.90;;;;;;5012498;28;20065;-71
2022/12/22 09:26:16;;;;;;;66.82;35.60;;;3.10;99.90;;;;;;5045211;28;20046;-71
2022/12/22 09:28:48;;;;;;;66.72;30.65;;;3.10;99.90;;;;;;5008409;28;20563;-72
2022/12/22 09:31:20;;;;;;;59.70;33.63;;;3.10;99.90;;;;;;5014044;28;20389;-72
2022/12/22 09:33:51;;;;;;;65.25;33.13;;;3.00;99.90;;;;;;5012135;28;20056;-71
2022/12/22 09:36:25;;;;;;;64.97;32.53;;;3.00;99.90;;;;;;5013090;28;20393;-71
2022/12/22 09:38:53;;;;;;;65.07;31.92;;;2.80;99.90;;;;;;4980188;28;20054;-73
2022/12/22 09:41:42;;;;;;;65.30;32.95;;;3.00;99.90;;;;;;5010234;28;20145;-73
2022/12/22 09:44:33;;;;;;;68.68;33.53;;;3.00;99.90;;;;;;4986230;28;20046;-71
2022/12/22 09:47:01;;;;;;;;;;;3.00;99.90;;;;;;4998220;28;20052;-74
2022/12/22 09:49:36;;;;;;;57.78;32.10;;;3.00;99.90;;;;;;5013338;28;19921;-73
2022/12/22 09:52:35;;;;;;;67.88;32.75;;;3.10;99.90;;;;;;4996220;28;20378;-73
2022/12/22 09:55:22;;;;;;;65.22;32.58;;;3.20;99.90;;;;;;4996703;28;20056;-72
2022/12/22 09:57:52;;;;;;;68.65;34.45;;;3.30;99.90;;;;;;5011723;28;20042;-72
2022/12/22 10:00:29;;;;;;;64.53;33.35;;;3.30;99.90;;;;;;4992227;28;20133;-74
2022/12/22 10:03:13;;;;;;;67.97;34.25;;;3.30;99.90;;;;;;4992408;28;20431;-71
2022/12/22 10:06:07;;;;;;;68.45;34.97;;;3.50;99.90;;;;;;4993020;28;20073;-71
2022/12/22 10:08:41;;;;;;;63.88;32.90;;;3.80;99.90;;;;;;4992283;28;20441;-71
2022/12/22 10:11:17;;;;;;;70.60;34.33;;;3.90;99.90;;;;;;4992201;28;20047;-73
2022/12/22 10:13:47;;;;;;;67.03;32.95;;;3.90;99.90;;;;;;4993391;28;20077;-74
2022/12/22 10:16:20;;;;;;;64.38;32.25;;;3.70;99.90;;;;;;4994963;28;20506;-74
2022/12/22 10:19:13;;;;;;;59.33;33.05;;;3.60;99.90;;;;;;4997009;28;20061;-73
2022/12/22 10:21:46;;;;;;;67.07;34.30;;;3.60;99.90;;;;;;4996905;28;20478;-72
2022/12/22 10:24:16;;;;;;;67.85;34.72;;;3.60;99.90;;;;;;4990921;28;20362;-70
2022/12/22 10:26:46;;;;;;;69.82;35.78;;;3.60;99.90;;;;;;5016444;28;20425;-71
2022/12/22 10:29:17;;;;;;;76.70;34.83;;;3.60;99.90;;;;;;4988618;28;20069;-72
2022/12/22 10:32:06;;;;;;;71.90;35.75;;;3.70;99.90;;;;;;4995667;28;20046;-75
2022/12/22 10:34:36;;;;;;;71.05;34.65;;;3.90;99.90;;;;;;4994747;28;20050;-69
2022/12/22 10:37:07;;;;;;;65.60;36.05;;;3.90;99.90;;;;;;5013356;28;20046;-71
2022/12/22 10:39:37;;;;;;;79.00;37.78;;;3.80;99.90;;;;;;4996137;28;20125;-76
2022/12/22 10:42:12;;;;;;;66.72;35.42;;;4.00;99.90;;;;;;4999291;28;20533;-73
2022/12/22 10:44:53;;;;;;;68.47;35.53;;;4.10;99.90;;;;;;5003144;28;20121;-74
2022/12/22 10:47:32;;;;;;;69.75;36.65;;;4.20;99.90;;;;;;4995522;28;20054;-73
2022/12/22 10:49:59;;;;;;;71.93;38.20;;;4.50;99.90;;;;;;5011534;28;20049;-72
2022/12/22 10:52:32;;;;;;;67.72;36.42;;;4.60;99.90;;;;;;5015386;28;20038;-72
2022/12/22 10:55:27;;;;;;;70.82;39.10;;;4.70;99.90;;;;;;4999233;28;20042;-74
2022/12/22 10:58:13;;;;;;;92.93;42.28;;;4.70;99.90;;;;;;5014301;28;20053;-72
2022/12/22 11:00:40;;;;;;;77.43;41.40;;;4.80;99.90;;;;;;4998408;28;20100;-72
2022/12/22 11:03:13;;;;;;;85.25;43.53;;;4.80;99.90;;;;;;5014626;28;20041;-74
2022/12/22 11:05:50;;;;;;;81.80;43.78;;;4.80;99.90;;;;;;5013400;28;20100;-72
2022/12/22 11:08:19;;;;;;;79.78;42.78;;;4.90;99.90;;;;;;5014720;28;20048;-72
2022/12/22 11:10:58;;;;;;;80.13;44.58;;;5.20;99.90;;;;;;5016319;28;20045;-72
2022/12/22 11:14:00;;;;;;;90.35;45.53;;;5.90;99.90;;;;;;5031146;28;20050;-75
2022/12/22 11:16:59;;;;;;;86.97;43.95;;;5.90;99.90;;;;;;4996828;28;20052;-73
2022/12/22 11:20:17;;;;;;;87.28;45.67;;;6.00;99.90;;;;;;4994808;28;20046;-74
2022/12/22 11:23:18;;;;;;;87.68;46.00;;;6.10;99.90;;;;;;5011657;28;20038;-72
2022/12/22 11:26:00;;;;;;;90.32;46.30;;;6.10;99.90;;;;;;5012056;28;20045;-75
2022/12/22 11:28:52;;;;;;;85.72;44.45;;;6.30;99.90;;;;;;4995735;28;20061;-74
2022/12/22 11:31:55;;;;;;;90.45;45.05;;;6.60;99.90;;;;;;5011289;28;20080;-72
2022/12/22 11:34:34;;;;;;;89.30;46.08;;;6.80;99.90;;;;;;4997620;28;20056;-73
2022/12/22 11:37:12;;;;;;;90.07;44.42;;;7.00;99.90;;;;;;5013849;28;20088;-73
2022/12/22 11:39:41;;;;;;;78.00;44.03;;;7.40;99.90;;;;;;5014017;28;20042;-73
2022/12/22 11:42:37;;;;;;;85.93;45.97;;;7.50;99.90;;;;;;5013978;28;20393;-72
2022/12/22 11:45:39;;;;;;;90.53;47.25;;;7.30;99.90;;;;;;4997926;28;20045;-75
2022/12/22 11:48:46;;;;;;;81.07;43.33;;;7.40;99.90;;;;;;5014142;28;20046;-72
2022/12/22 11:51:34;;;;;;;84.13;45.90;;;7.70;99.90;;;;;;5015456;28;20409;-74
2022/12/22 11:54:41;;;;;;;88.70;43.83;;;7.20;99.90;;;;;;4997635;28;20038;-72
2022/12/22 11:57:42;;;;;;;93.40;45.05;;;6.80;99.90;;;;;;5014623;28;20121;-74
2022/12/22 12:00:13;;;;;;;91.43;45.60;;;6.90;99.90;;;;;;5013807;28;20050;-71
2022/12/22 12:02:58;;;;;;;;;;;7.30;99.90;;;;;;5015117;28;20053;-74
2022/12/22 12:06:23;;;;;;;76.40;41.03;;;7.20;99.90;;;;;;5013880;28;19984;-72
2022/12/22 12:09:47;;;;;;;82.28;43.10;;;7.20;99.90;;;;;;4968329;28;20038;-75
2022/12/22 12:12:43;;;;;;;82.00;43.30;;;7.50;99.90;;;;;;4920342;29;20439;-72
2022/12/22 12:15:39;;;;;;;86.00;46.83;;;8.00;99.90;;;;;;4951594;29;20411;-73
2022/12/22 12:18:22;;;;;;;84.50;43.75;;;8.30;99.90;;;;;;4995922;28;20136;-74
2022/12/22 12:21:05;;;;;;;84.10;46.50;;;8.30;99.90;;;;;;5011541;28;20046;-73
2022/12/22 12:23:37;;;;;;;83.85;46.33;;;8.00;99.90;;;;;;4997040;28;20131;-73
2022/12/22 12:26:22;;;;;;;82.93;45.72;;;7.70;99.90;;;;;;4997513;28;20071;-71
2022/12/22 12:28:58;;;;;;;91.05;44.88;;;7.60;99.90;;;;;;5012366;28;20057;-73
2022/12/22 12:31:44;;;;;;;84.03;45.08;;;7.90;99.90;;;;;;5014461;28;20054;-72
2022/12/22 12:34:18;;;;;;;90.53;45.70;;;8.40;99.90;;;;;;5013334;28;20076;-72
2022/12/22 12:37:00;;;;;;;86.70;46.53;;;8.80;99.90;;;;;;5012596;28;20046;-72
2022/12/22 12:39:45;;;;;;;88.05;45.60;;;9.10;99.90;;;;;;5013924;28;20049;-73
2022/12/22 12:42:36;;;;;;;83.18;45.67;;;9.40;99.80;;;;;;5029398;28;20180;-72
2022/12/22 12:45:42;;;;;;;89.00;46.85;;;9.60;98.70;;;;;;5012986;28;20116;-73
2022/12/22 12:48:24;;;;;;;94.13;47.33;;;9.80;98.30;;;;;;4997730;28;20096;-74
2022/12/22 12:50:53;;;;;;;85.97;47.28;;;10.20;98.20;;;;;;4996656;28;20440;-73
2022/12/22 12:53:23;;;;;;;94.13;46.58;;;10.40;98.70;;;;;;5029041;28;20049;-73
2022/12/22 12:55:53;;;;;;;91.50;47.75;;;10.50;97.10;;;;;;4996566;28;20400;-74
2022/12/22 12:58:38;;;;;;;91.53;48.42;;;10.60;96.70;;;;;;4996142;28;20121;-73
2022/12/22 13:01:10;;;;;;;88.88;48.25;;;10.70;96.00;;;;;;5032005;28;20045;-72
2022/12/22 13:03:40;;;;;;;88.82;46.88;;;10.80;95.40;;;;;;5015669;28;20049;-74
2022/12/22 13:06:46;;;;;;;83.70;45.25;;;10.40;94.60;;;;;;5032459;28;20050;-72
2022/12/22 13:09:27;;;;;;;84.75;44.10;;;10.20;94.70;;;;;;5016128;28;20053;-72
2022/12/22 13:12:53;;;;;;;93.80;46.63;;;10.10;94.90;;;;;;5001937;28;20060;-72
2022/12/22 13:15:33;;;;;;;90.22;47.30;;;10.10;95.00;;;;;;4918125;29;20047;-74
2022/12/22 13:18:10;;;;;;;;;;;10.10;94.90;;;;;;4933646;29;20056;-73
2022/12/22 13:20:38;;;;;;;91.07;46.85;;;10.40;94.60;;;;;;4988703;28;20339;-74
2022/12/22 13:23:13;;;;;;;89.30;47.13;;;10.20;94.20;;;;;;5032976;28;20041;-73
2022/12/22 13:26:05;;;;;;;81.65;47.92;;;10.10;94.20;;;;;;5015517;28;20535;-75
2022/12/22 13:28:36;;;;;;;83.15;46.55;;;10.40;94.00;;;;;;5016245;28;20407;-74
2022/12/22 13:31:12;;;;;;;89.90;48.25;;;10.20;93.30;;;;;;4999324;28;20046;-71
2022/12/22 13:33:43;;;;;;;81.55;45.53;;;9.70;94.00;;;;;;5015337;28;20100;-74
2022/12/22 13:36:27;;;;;;;83.03;46.63;;;9.80;94.40;;;;;;5030912;28;20408;-73
2022/12/22 13:39:06;;;;;;;77.88;45.05;;;9.80;94.50;;;;;;5015726;28;20045;-74
2022/12/22 13:41:46;;;;;;;78.45;44.10;;;10.10;94.40;;;;;;5000205;28;20049;-73
2022/12/22 13:44:37;;;;;;;85.55;44.92;;;10.20;94.00;;;;;;5032563;28;20046;-74
2022/12/22 13:47:11;;;;;;;94.40;46.85;;;9.70;94.10;;;;;;5023271;28;20049;-73
2022/12/22 13:49:41;;;;;;;85.32;46.47;;;9.40;94.70;;;;;;4999369;28;20057;-73
2022/12/22 13:52:28;;;;;;;85.82;46.83;;;9.00;95.10;;;;;;5032067;28;20042;-73
2022/12/22 13:54:56;;;;;;;85.93;46.38;;;8.90;95.70;;;;;;4999195;28;20037;-72
2022/12/22 13:57:23;;;;;;;91.60;47.15;;;8.80;96.30;;;;;;4999014;28;20050;-73
2022/12/22 13:59:53;;;;;;;79.53;45.25;;;8.70;96.70;;;;;;5015134;28;20184;-74
2022/12/22 14:02:31;;;;;;;87.38;47.58;;;8.80;96.90;;;;;;4999893;28;20052;-73
2022/12/22 14:05:07;;;;;;;96.70;50.90;;;9.00;96.60;;;;;;5031830;28;20041;-73
2022/12/22 14:07:37;;;;;;;95.13;48.72;;;9.10;96.90;;;;;;5032170;28;20056;-74
2022/12/22 14:10:11;;;;;;;85.93;47.35;;;9.30;97.00;;;;;;4998791;28;20073;-74
2022/12/22 14:12:45;;;;;;;90.72;45.55;;;9.20;96.50;;;;;;4999474;28;20397;-73
2022/12/22 14:15:17;;;;;;;91.68;46.90;;;8.90;96.80;;;;;;5032091;28;20045;-72
2022/12/22 14:17:48;;;;;;;89.72;48.17;;;8.60;97.40;;;;;;4998574;28;20077;-73
2022/12/22 14:20:35;;;;;;;90.35;47.90;;;8.40;97.90;;;;;;5015301;28;20050;-72
2022/12/22 14:23:27;;;;;;;90.07;46.92;;;7.90;98.50;;;;;;5032501;28;20048;-73
2022/12/22 14:25:55;;;;;;;97.28;49.75;;;7.90;99.20;;;;;;5015762;28;20085;-73
2022/12/22 14:28:49;;;;;;;92.97;48.22;;;7.80;99.70;;;;;;5014750;28;20057;-73
2022/12/22 14:31:17;;;;;;;99.93;49.90;;;7.60;99.90;;;;;;5032603;28;20113;-72
2022/12/22 14:34:03;;;;;;;106.18;54.53;;;7.50;99.90;;;;;;5032803;28;20041;-73
2022/12/22 14:36:44;;;;;;;100.88;54.60;;;7.30;99.90;;;;;;5014861;28;20081;-74
2022/12/22 14:39:30;;;;;;;120.93;58.67;;;7.10;99.90;;;;;;4986461;28;20054;-74
2022/12/22 14:42:01;;;;;;;119.80;62.47;;;6.80;99.90;;;;;;4998721;28;20057;-74
2022/12/22 14:44:46;;;;;;;123.65;64.95;;;6.60;99.90;;;;;;5014490;28;20053;-74
2022/12/22 14:47:21;;;;;;;123.20;65.18;;;6.50;99.90;;;;;;5015510;28;20127;-74
2022/12/22 14:50:22;;;;;;;136.65;66.53;;;6.40;99.90;;;;;;4999073;28;20073;-74
2022/12/22 14:53:15;;;;;;;124.23;67.63;;;6.30;99.90;;;;;;5014800;28;20051;-74
2022/12/22 14:55:52;;;;;;;121.65;64.85;;;6.20;99.90;;;;;;4998248;28;20053;-72
2022/12/22 14:58:34;;;;;;;129.40;66.60;;;6.20;99.90;;;;;;5015519;28;20045;-74
2022/12/22 15:01:26;;;;;;;145.50;71.40;;;6.20;99.90;;;;;;5000053;28;20057;-72
2022/12/22 15:04:03;;;;;;;132.27;69.70;;;6.10;99.90;;;;;;5002287;28;20388;-74
2022/12/22 15:06:35;;;;;;;131.98;67.65;;;6.00;99.90;;;;;;5017789;28;20052;-72
2022/12/22 15:09:14;;;;;;;131.93;67.25;;;6.10;99.90;;;;;;5003816;28;20055;-73
2022/12/22 15:12:09;;;;;;;131.48;66.93;;;6.20;99.90;;;;;;5017228;28;20060;-74
2022/12/22 15:14:40;;;;;;;119.53;66.43;;;6.20;99.90;;;;;;4994951;28;20404;-73
2022/12/22 15:17:24;;;;;;;125.50;65.50;;;6.20;99.90;;;;;;5017498;28;20485;-73
2022/12/22 15:19:56;;;;;;;128.18;65.93;;;6.20;99.90;;;;;;5001674;28;20045;-74
2022/12/22 15:22:25;;;;;;;122.63;62.22;;;6.10;99.90;;;;;;5017414;28;20128;-74
2022/12/22 15:24:52;;;;;;;117.40;62.22;;;6.00;99.90;;;;;;5017837;28;20046;-73
2022/12/22 15:27:19;;;;;;;113.43;59.65;;;6.00;99.90;;;;;;5001350;28;20517;-74
2022/12/22 15:29:46;;;;;;;120.68;60.88;;;5.90;99.90;;;;;;5017923;28;20053;-73
2022/12/22 15:32:14;;;;;;;126.18;64.32;;;5.90;99.90;;;;;;5017446;28;20460;-74
2022/12/22 15:34:45;;;;;;;109.45;59.20;;;5.90;99.90;;;;;;5035399;28;20054;-74
2022/12/22 15:37:12;;;;;;;106.55;53.53;;;5.90;99.90;;;;;;5016946;28;20108;-74
2022/12/22 15:39:39;;;;;;;107.57;53.15;;;5.80;99.90;;;;;;5034039;28;20555;-73
2022/12/22 15:42:08;;;;;;;110.55;52.78;;;5.90;99.90;;;;;;5000595;28;20042;-74
2022/12/22 15:44:44;;;;;;;104.05;54.00;;;5.80;99.90;;;;;;5017510;28;20520;-76
2022/12/22 15:47:15;;;;;;;109.80;52.17;;;5.80;99.90;;;;;;5001927;28;20104;-74
2022/12/22 15:49:43;;;;;;;107.55;54.88;;;5.80;99.90;;;;;;5001210;28;20136;-75
2022/12/22 15:52:16;;;;;;;111.43;59.08;;;5.70;99.90;;;;;;5001319;28;20388;-75
2022/12/22 15:54:50;;;;;;;111.90;57.97;;;5.70;99.90;;;;;;5001486;28;20045;-74
2022/12/22 15:57:20;;;;;;;121.38;61.08;;;5.70;99.90;;;;;;5016903;28;20045;-75
2022/12/22 15:59:51;;;;;;;128.98;62.40;;;5.60;99.90;;;;;;5034731;28;20053;-76
2022/12/22 16:02:18;;;;;;;125.38;61.67;;;5.60;99.90;;;;;;5016819;28;20053;-74
2022/12/22 16:04:51;;;;;;;112.63;56.60;;;5.60;99.90;;;;;;5001149;28;20571;-74
2022/12/22 16:07:19;;;;;;;108.30;54.88;;;5.50;99.90;;;;;;5000928;28;20454;-73
2022/12/22 16:09:47;;;;;;;118.13;59.05;;;5.40;99.90;;;;;;5017609;28;20059;-74
2022/12/22 16:12:17;;;;;;;106.70;54.33;;;5.50;99.90;;;;;;5032855;28;20060;-73
2022/12/22 16:14:52;;;;;;;119.70;59.40;;;5.40;99.90;;;;;;5001106;28;20045;-73
2022/12/22 16:17:22;;;;;;;113.13;59.40;;;5.30;99.90;;;;;;5000168;28;20500;-72
2022/12/22 16:19:52;;;;;;;123.65;61.60;;;5.20;99.90;;;;;;5000763;28;20041;-74
2022/12/22 16:22:32;;;;;;;118.32;60.58;;;5.20;99.90;;;;;;5001410;28;20401;-72
2022/12/22 16:25:03;;;;;;;110.85;59.05;;;5.40;99.90;;;;;;5017368;28;20052;-75
2022/12/22 16:27:35;;;;;;;112.22;55.65;;;5.40;99.90;;;;;;5033377;28;20037;-75
2022/12/22 16:30:08;;;;;;;115.53;57.10;;;5.40;99.90;;;;;;5016429;28;20049;-73
2022/12/22 16:32:38;;;;;;;116.35;60.15;;;5.40;99.90;;;;;;5000333;28;20133;-74
2022/12/22 16:35:09;;;;;;;116.53;58.67;;;5.30;99.90;;;;;;5000132;28;20053;-75
2022/12/22 16:37:37;;;;;;;115.85;62.67;;;5.10;99.90;;;;;;5011623;28;20045;-72
2022/12/22 16:40:08;;;;;;;125.30;65.75;;;5.10;99.90;;;;;;5034412;28;20416;-73
2022/12/22 16:42:37;;;;;;;127.80;65.00;;;5.20;99.90;;;;;;5050877;28;20041;-71
2022/12/22 16:45:28;;;;;;;127.13;63.97;;;5.20;99.90;;;;;;5039727;28;20147;-70
2022/12/22 16:47:59;;;;;;;141.32;72.68;;;5.40;99.90;;;;;;5040018;28;20366;-72
2022/12/22 16:50:32;;;;;;;151.27;76.47;;;5.10;99.90;;;;;;5038533;28;20041;-73
2022/12/22 16:53:02;;;;;;;152.27;78.88;;;5.10;99.90;;;;;;5042376;28;20045;-70
2022/12/22 16:55:34;;;;;;;293.83;139.63;;;5.20;99.90;;;;;;5035477;28;20045;-71
2022/12/22 16:58:07;;;;;;;165.15;87.28;;;5.40;99.90;;;;;;5035973;28;20068;-71
2022/12/22 17:00:43;;;;;;;175.40;92.57;;;5.40;99.90;;;;;;5020235;28;20053;-69
2022/12/22 17:03:22;;;;;;;265.90;125.70;;;5.30;99.90;;;;;;5011541;28;20069;-70